Time;durP1;ratioP1;P1;durP2;ratioP2;P2;SDS_P1;SDS_P2;PMS_P1;PMS_P2;Temp;Humidity;BMP_temperature;BMP_pressure;BME280_temperature;BME280_humidity;BME280_pressure;Samples;Min_cycle;Max_cycle;Signal;HPM_P1;HPM_P2
2024/02/09 05:00:30;;;;;;;0.20;0.20;;;1.70;99.90;;;;;;5918698;23;20249;-71
2024/02/09 05:02:57;;;;;;;1.10;0.55;;;1.70;99.90;;;;;;4959560;28;20681;-70
2024/02/09 05:05:25;;;;;;;0.85;0.85;;;1.70;99.90;;;;;;4959204;28;20688;-69
2024/02/09 05:07:52;;;;;;;0.93;0.93;;;1.70;99.90;;;;;;4951897;28;20322;-70
2024/02/09 05:10:20;;;;;;;0.60;0.60;;;1.70;99.90;;;;;;4952992;28;20343;-70
2024/02/09 05:12:47;;;;;;;0.20;0.20;;;1.80;99.90;;;;;;4941842;28;20214;-70
2024/02/09 05:15:16;;;;;;;1.38;1.38;;;1.80;99.90;;;;;;4937492;29;20221;-70
2024/02/09 05:17:44;;;;;;;0.25;0.25;;;1.80;99.90;;;;;;4934597;29;20926;-70
2024/02/09 05:20:13;;;;;;;0.20;0.20;;;1.80;99.90;;;;;;4938189;28;20630;-70
2024/02/09 05:22:40;;;;;;;0.50;0.45;;;1.80;99.90;;;;;;4937698;29;20212;-70
2024/02/09 05:25:07;;;;;;;0.60;0.60;;;1.80;99.90;;;;;;4935026;29;20765;-70
2024/02/09 05:27:34;;;;;;;0.90;0.90;;;1.80;99.90;;;;;;4934691;29;20205;-70
2024/02/09 05:30:00;;;;;;;0.65;0.65;;;1.80;99.90;;;;;;4933575;29;20295;-70
2024/02/09 05:32:27;;;;;;;0.20;0.20;;;1.80;99.90;;;;;;4937444;29;20608;-70
2024/02/09 05:34:56;;;;;;;0.70;0.70;;;1.80;99.90;;;;;;4937931;29;20565;-70
2024/02/09 05:37:23;;;;;;;0.20;0.20;;;1.80;99.90;;;;;;4936100;28;20218;-70
2024/02/09 05:39:50;;;;;;;0.47;0.47;;;1.80;99.90;;;;;;4941918;29;20907;-70
2024/02/09 05:42:17;;;;;;;0.30;0.30;;;1.80;99.90;;;;;;4937046;29;20235;-71
2024/02/09 05:44:44;;;;;;;0.22;0.20;;;1.80;99.90;;;;;;4940642;29;20587;-71
2024/02/09 05:47:11;;;;;;;1.98;0.77;;;1.80;99.90;;;;;;4935449;28;20283;-71
2024/02/09 05:49:38;;;;;;;0.40;0.40;;;1.80;99.90;;;;;;4934442;29;20215;-70
2024/02/09 05:52:07;;;;;;;0.60;0.60;;;1.90;99.90;;;;;;4939589;29;20267;-70
2024/02/09 05:54:34;;;;;;;0.30;0.30;;;1.90;99.90;;;;;;4936266;28;20861;-70
2024/02/09 05:57:00;;;;;;;0.55;0.55;;;1.90;99.90;;;;;;4932691;28;20238;-70
2024/02/09 05:59:27;;;;;;;0.45;0.45;;;1.90;99.90;;;;;;4940641;29;20210;-71
2024/02/09 06:01:54;;;;;;;0.30;0.30;;;1.90;99.90;;;;;;4938069;29;20251;-70
2024/02/09 06:04:22;;;;;;;1.10;0.55;;;1.90;99.90;;;;;;4933961;28;20223;-70
2024/02/09 06:06:49;;;;;;;0.35;0.35;;;1.90;99.90;;;;;;4938729;29;20203;-70
2024/02/09 06:09:17;;;;;;;1.10;0.60;;;1.90;99.90;;;;;;4934489;29;20212;-71
2024/02/09 06:11:43;;;;;;;0.50;0.50;;;1.90;99.90;;;;;;4941810;29;20242;-70
2024/02/09 06:14:10;;;;;;;1.50;1.50;;;1.90;99.90;;;;;;4940216;29;20249;-70
2024/02/09 06:16:38;;;;;;;0.30;0.30;;;1.90;99.90;;;;;;4937296;28;20212;-71
2024/02/09 06:19:07;;;;;;;0.63;0.63;;;1.90;99.90;;;;;;4935652;29;20215;-70
2024/02/09 06:21:35;;;;;;;0.45;0.45;;;1.90;99.90;;;;;;4945437;29;21391;-70
2024/02/09 06:24:01;;;;;;;0.82;0.82;;;1.90;99.90;;;;;;4937118;28;20315;-70
2024/02/09 06:26:29;;;;;;;1.40;1.40;;;1.90;99.90;;;;;;4943203;29;20679;-69
2024/02/09 06:28:56;;;;;;;0.52;0.52;;;1.90;99.90;;;;;;4935914;29;20215;-68
2024/02/09 06:31:25;;;;;;;1.27;1.25;;;1.90;99.90;;;;;;4939246;29;20249;-71
2024/02/09 06:33:54;;;;;;;1.00;1.00;;;1.90;99.90;;;;;;4939472;29;20243;-69
2024/02/09 06:36:21;;;;;;;0.88;0.88;;;1.90;99.90;;;;;;4935803;29;20215;-70
2024/02/09 06:38:48;;;;;;;0.80;0.80;;;1.90;99.90;;;;;;4935354;29;20209;-70
2024/02/09 06:41:15;;;;;;;0.90;0.90;;;1.90;99.90;;;;;;4938721;29;20235;-67
2024/02/09 06:43:43;;;;;;;1.50;0.73;;;1.90;99.90;;;;;;4940330;29;20808;-69
2024/02/09 06:46:10;;;;;;;1.52;1.05;;;1.90;99.90;;;;;;4942825;28;20228;-69
2024/02/09 06:48:37;;;;;;;0.40;0.40;;;2.00;99.90;;;;;;4942010;29;20217;-69
2024/02/09 06:51:07;;;;;;;0.63;0.63;;;2.00;99.90;;;;;;4943742;29;20236;-69
2024/02/09 06:53:34;;;;;;;1.60;1.50;;;2.00;99.90;;;;;;4939991;29;20215;-70
2024/02/09 06:56:01;;;;;;;0.80;0.80;;;2.00;99.90;;;;;;4938786;28;20226;-69
2024/02/09 06:58:28;;;;;;;0.70;0.70;;;2.00;99.90;;;;;;4939164;29;20611;-69
2024/02/09 07:00:56;;;;;;;0.70;0.70;;;2.00;99.90;;;;;;4943470;29;20240;-69
2024/02/09 07:03:24;;;;;;;0.47;0.47;;;2.00;99.90;;;;;;4938170;29;20203;-70
2024/02/09 07:05:52;;;;;;;0.47;0.47;;;2.00;99.90;;;;;;4935248;29;20210;-69
2024/02/09 07:08:26;;;;;;;0.25;0.25;;;2.00;99.90;;;;;;4941263;29;20538;-69
2024/02/09 07:10:53;;;;;;;0.32;0.32;;;2.00;99.90;;;;;;4939162;29;20812;-70
2024/02/09 07:13:19;;;;;;;0.50;0.50;;;2.00;99.90;;;;;;4943031;29;20572;-69
2024/02/09 07:15:46;;;;;;;0.70;0.70;;;2.10;99.90;;;;;;4940143;29;20212;-68
2024/02/09 07:18:14;;;;;;;0.20;0.20;;;2.00;99.90;;;;;;4937808;28;20212;-69
2024/02/09 07:20:42;;;;;;;0.93;0.93;;;2.00;99.90;;;;;;4941564;28;20246;-68
2024/02/09 07:23:09;;;;;;;0.80;0.80;;;2.00;99.90;;;;;;4937708;29;20222;-69
2024/02/09 07:25:35;;;;;;;0.65;0.50;;;2.00;99.90;;;;;;4945781;28;20207;-70
2024/02/09 07:28:03;;;;;;;0.75;0.60;;;2.10;99.90;;;;;;4943637;28;20625;-68
2024/02/09 07:30:29;;;;;;;0.90;0.85;;;2.00;99.90;;;;;;4935674;29;20243;-69
2024/02/09 07:32:56;;;;;;;0.20;0.20;;;2.00;99.90;;;;;;4940066;29;20672;-71
2024/02/09 07:35:25;;;;;;;0.50;0.50;;;2.10;99.90;;;;;;4936570;29;20255;-69
2024/02/09 07:37:51;;;;;;;0.52;0.40;;;2.10;99.90;;;;;;4939880;29;20230;-69
2024/02/09 07:40:19;;;;;;;0.60;0.60;;;2.10;99.90;;;;;;4942521;28;20238;-69
2024/02/09 07:42:46;;;;;;;0.65;0.65;;;2.10;99.90;;;;;;4942978;29;20212;-69
2024/02/09 07:45:16;;;;;;;0.70;0.70;;;2.10;99.90;;;;;;4936151;29;20687;-69
2024/02/09 07:47:44;;;;;;;0.82;0.82;;;2.10;99.90;;;;;;4940264;29;20215;-69
2024/02/09 07:50:11;;;;;;;0.90;0.90;;;2.10;99.90;;;;;;4938785;29;20246;-70
2024/02/09 07:52:39;;;;;;;0.60;0.60;;;2.10;99.90;;;;;;4942689;29;20448;-69
2024/02/09 07:55:07;;;;;;;0.75;0.75;;;2.10;99.90;;;;;;4937664;28;20208;-69
2024/02/09 07:57:34;;;;;;;1.00;1.00;;;2.10;99.90;;;;;;4940441;29;20266;-69
2024/02/09 08:00:00;;;;;;;0.82;0.82;;;2.10;99.90;;;;;;4938902;28;20212;-68
2024/02/09 08:02:28;;;;;;;0.52;0.52;;;2.10;99.90;;;;;;4942470;29;20239;-69
2024/02/09 08:04:55;;;;;;;0.68;0.55;;;2.10;99.90;;;;;;4945597;29;20299;-69
2024/02/09 08:07:23;;;;;;;0.88;0.88;;;2.10;99.90;;;;;;4939925;29;20714;-69
2024/02/09 08:09:51;;;;;;;0.75;0.75;;;2.10;99.90;;;;;;4938800;29;20223;-70
2024/02/09 08:12:18;;;;;;;1.40;1.40;;;2.10;99.90;;;;;;4942799;29;20239;-69
2024/02/09 08:14:45;;;;;;;0.47;0.47;;;2.10;99.90;;;;;;4940737;28;20569;-69
2024/02/09 08:17:11;;;;;;;0.95;0.73;;;2.10;99.90;;;;;;4937387;29;20652;-69
2024/02/09 08:19:38;;;;;;;0.45;0.45;;;2.20;99.90;;;;;;4941679;29;20214;-68
2024/02/09 08:22:05;;;;;;;0.68;0.63;;;2.20;99.90;;;;;;4941906;28;20229;-70
2024/02/09 08:24:33;;;;;;;0.40;0.40;;;2.20;99.90;;;;;;4943148;29;20207;-70
2024/02/09 08:27:01;;;;;;;0.50;0.50;;;2.20;99.90;;;;;;4938662;29;20223;-69
2024/02/09 08:29:27;;;;;;;0.40;0.40;;;2.20;99.90;;;;;;4939576;29;20671;-69
2024/02/09 08:31:54;;;;;;;0.50;0.50;;;2.20;99.90;;;;;;4935568;29;20753;-69
2024/02/09 08:34:21;;;;;;;0.20;0.20;;;2.20;99.90;;;;;;4943680;29;20211;-69
2024/02/09 08:36:49;;;;;;;0.30;0.30;;;2.20;99.90;;;;;;4934569;29;20217;-70
2024/02/09 08:39:16;;;;;;;0.55;0.55;;;2.20;99.90;;;;;;4937494;29;20255;-69
2024/02/09 08:41:43;;;;;;;0.40;0.40;;;2.20;99.90;;;;;;4937723;28;20233;-69
2024/02/09 08:44:11;;;;;;;0.30;0.30;;;2.20;99.90;;;;;;4934002;29;20205;-70
2024/02/09 08:46:38;;;;;;;0.45;0.45;;;2.20;99.90;;;;;;4933901;29;20209;-70
2024/02/09 08:49:05;;;;;;;0.47;0.45;;;2.20;99.90;;;;;;4939565;29;20220;-70
2024/02/09 08:51:31;;;;;;;0.30;0.30;;;2.20;99.90;;;;;;4937632;28;20239;-71
2024/02/09 08:53:58;;;;;;;0.60;0.60;;;2.20;99.90;;;;;;4941861;29;20208;-69
2024/02/09 08:56:25;;;;;;;1.05;0.95;;;2.30;99.90;;;;;;4939903;28;20213;-70
2024/02/09 08:58:52;;;;;;;0.40;0.40;;;2.30;99.90;;;;;;4936708;28;20209;-69
2024/02/09 09:01:20;;;;;;;1.08;1.08;;;2.30;99.90;;;;;;4936868;29;20233;-70
2024/02/09 09:03:47;;;;;;;0.65;0.65;;;2.30;99.90;;;;;;4939179;29;20200;-71
2024/02/09 09:06:13;;;;;;;0.10;0.10;;;2.30;99.90;;;;;;4947958;28;20219;-71
2024/02/09 09:08:42;;;;;;;0.47;0.47;;;2.30;99.90;;;;;;4939825;28;20217;-69
2024/02/09 09:11:08;;;;;;;0.50;0.50;;;2.30;99.90;;;;;;4939336;28;20229;-70
2024/02/09 09:13:35;;;;;;;0.40;0.40;;;2.30;99.90;;;;;;4933208;29;20212;-73
2024/02/09 09:16:02;;;;;;;0.68;0.63;;;2.40;99.90;;;;;;4942979;29;20212;-70
2024/02/09 09:18:30;;;;;;;0.28;0.28;;;2.40;99.90;;;;;;4938556;28;20671;-70
2024/02/09 09:20:57;;;;;;;0.30;0.30;;;2.40;99.90;;;;;;4942234;29;20319;-70
2024/02/09 09:23:24;;;;;;;0.50;0.50;;;2.40;99.90;;;;;;4938792;28;20687;-70
2024/02/09 09:25:51;;;;;;;0.75;0.75;;;2.40;99.90;;;;;;4934989;29;20311;-69
2024/02/09 09:28:19;;;;;;;0.85;0.85;;;2.40;99.90;;;;;;4942187;28;20212;-70
2024/02/09 09:30:46;;;;;;;0.30;0.30;;;2.40;99.90;;;;;;4932352;29;20288;-69
2024/02/09 09:33:13;;;;;;;0.70;0.70;;;2.40;99.90;;;;;;4935227;29;20276;-70
2024/02/09 09:35:41;;;;;;;0.60;0.60;;;2.40;99.90;;;;;;4932955;29;20672;-69
2024/02/09 09:38:10;;;;;;;0.60;0.60;;;2.40;99.90;;;;;;4939718;29;20213;-70
2024/02/09 09:40:40;;;;;;;0.43;0.43;;;2.40;99.90;;;;;;4939391;29;20718;-70
2024/02/09 09:43:07;;;;;;;0.82;0.57;;;2.40;99.90;;;;;;4942881;28;20213;-69
2024/02/09 09:45:34;;;;;;;0.55;0.55;;;2.40;99.90;;;;;;4941170;29;20208;-70
2024/02/09 09:48:03;;;;;;;0.70;0.70;;;2.40;99.90;;;;;;4937108;28;20270;-70
2024/02/09 09:50:30;;;;;;;0.25;0.25;;;2.40;99.90;;;;;;4939823;28;20233;-69
2024/02/09 09:53:03;;;;;;;1.42;1.33;;;2.50;99.90;;;;;;4938196;29;20232;-69
2024/02/09 09:55:32;;;;;;;0.32;0.32;;;2.50;99.90;;;;;;4949840;29;20207;-69
2024/02/09 09:57:59;;;;;;;0.30;0.30;;;2.50;99.90;;;;;;4940265;28;20214;-69
2024/02/09 10:00:26;;;;;;;0.77;0.77;;;2.50;99.90;;;;;;4944359;29;20688;-70
2024/02/09 10:02:54;;;;;;;1.63;1.52;;;2.50;99.90;;;;;;4948839;29;20208;-70
2024/02/09 10:05:21;;;;;;;0.38;0.38;;;2.50;99.90;;;;;;4940212;29;20209;-69
2024/02/09 10:07:48;;;;;;;0.50;0.50;;;2.50;99.90;;;;;;4940397;29;20227;-70
2024/02/09 10:10:19;;;;;;;0.38;0.38;;;2.60;99.90;;;;;;4943231;29;20212;-69
2024/02/09 10:12:45;;;;;;;0.45;0.45;;;2.60;99.90;;;;;;4946448;29;20770;-69
2024/02/09 10:15:12;;;;;;;0.25;0.25;;;2.60;99.90;;;;;;4942220;29;20205;-69
2024/02/09 10:17:40;;;;;;;1.55;1.45;;;2.60;99.90;;;;;;4946365;29;20223;-70
2024/02/09 10:20:09;;;;;;;1.50;1.50;;;2.70;99.90;;;;;;4945097;29;20276;-70
2024/02/09 10:22:37;;;;;;;0.38;0.38;;;2.70;99.90;;;;;;4942196;28;20601;-70
2024/02/09 10:25:04;;;;;;;0.35;0.35;;;2.70;99.90;;;;;;4947693;28;20210;-71
2024/02/09 10:27:33;;;;;;;0.60;0.60;;;2.80;99.90;;;;;;4939751;28;20751;-69
2024/02/09 10:30:00;;;;;;;0.50;0.50;;;2.80;99.90;;;;;;4941856;28;20240;-69
2024/02/09 10:32:27;;;;;;;0.20;0.20;;;2.80;99.90;;;;;;4942658;28;20240;-69
2024/02/09 10:34:54;;;;;;;1.20;0.80;;;2.80;99.90;;;;;;4940705;29;20216;-69
2024/02/09 10:37:21;;;;;;;0.73;0.73;;;2.80;99.90;;;;;;4942781;29;20223;-70
2024/02/09 10:39:48;;;;;;;0.77;0.77;;;2.70;99.90;;;;;;4946717;29;20215;-70
2024/02/09 10:42:16;;;;;;;1.00;1.00;;;2.80;99.90;;;;;;4934504;29;20714;-70
2024/02/09 10:44:46;;;;;;;0.40;0.40;;;2.80;99.90;;;;;;4938801;29;20212;-69
2024/02/09 10:47:14;;;;;;;0.52;0.52;;;2.80;99.90;;;;;;4942052;29;20211;-69
2024/02/09 10:49:46;;;;;;;0.43;0.43;;;2.80;99.90;;;;;;4943469;29;20280;-69
2024/02/09 10:52:13;;;;;;;0.95;0.75;;;2.80;99.90;;;;;;4940682;29;20634;-68
2024/02/09 10:54:48;;;;;;;0.50;0.50;;;2.80;99.90;;;;;;4937534;29;20213;-68
2024/02/09 10:57:15;;;;;;;0.98;0.98;;;2.80;99.90;;;;;;4937928;29;20205;-68
2024/02/09 10:59:44;;;;;;;0.28;0.28;;;2.80;99.90;;;;;;4940646;29;20228;-67
2024/02/09 11:02:11;;;;;;;0.20;0.20;;;2.80;99.90;;;;;;4940924;28;20297;-68
2024/02/09 11:04:39;;;;;;;0.90;0.50;;;2.80;99.90;;;;;;4937576;29;20610;-69
2024/02/09 11:07:06;;;;;;;0.90;0.90;;;2.80;99.90;;;;;;4936417;28;20223;-69
2024/02/09 11:09:33;;;;;;;0.63;0.63;;;2.80;99.90;;;;;;4937002;29;20209;-69
2024/02/09 11:12:04;;;;;;;0.60;0.60;;;2.80;99.90;;;;;;4939363;28;20611;-68
2024/02/09 11:14:32;;;;;;;0.73;0.73;;;2.90;99.90;;;;;;4939625;29;20265;-71
2024/02/09 11:17:06;;;;;;;0.80;0.80;;;2.90;99.90;;;;;;4942699;29;20224;-71
2024/02/09 11:19:37;;;;;;;0.63;0.63;;;2.90;99.90;;;;;;4941267;29;20221;-71
2024/02/09 11:22:04;;;;;;;0.20;0.20;;;2.90;99.90;;;;;;4937651;28;20280;-68
2024/02/09 11:24:32;;;;;;;0.38;0.38;;;2.90;99.90;;;;;;4934247;28;20227;-70
2024/02/09 11:26:59;;;;;;;0.52;0.52;;;2.90;99.90;;;;;;4943770;29;20208;-70
2024/02/09 11:29:27;;;;;;;0.90;0.60;;;2.90;99.90;;;;;;4941648;28;20712;-69
2024/02/09 11:31:56;;;;;;;0.82;0.82;;;3.00;99.90;;;;;;4935943;29;20240;-68
2024/02/09 11:34:26;;;;;;;0.45;0.45;;;3.00;99.90;;;;;;4938566;29;20568;-69
2024/02/09 11:37:00;;;;;;;0.88;0.88;;;3.00;99.90;;;;;;4933757;29;20209;-71
2024/02/09 11:39:27;;;;;;;0.57;0.57;;;3.00;99.90;;;;;;4940482;29;20768;-70
2024/02/09 11:41:54;;;;;;;0.90;0.85;;;3.00;99.90;;;;;;4937092;29;20240;-71
2024/02/09 11:44:22;;;;;;;0.28;0.28;;;3.10;99.90;;;;;;4935688;29;20360;-70
2024/02/09 11:46:51;;;;;;;1.00;0.90;;;3.10;99.90;;;;;;4933747;29;20229;-69
2024/02/09 11:49:18;;;;;;;0.63;0.63;;;3.10;99.90;;;;;;4934089;29;20238;-70
2024/02/09 11:51:46;;;;;;;1.15;1.05;;;3.10;99.90;;;;;;4943255;29;20237;-70
2024/02/09 11:54:15;;;;;;;0.77;0.77;;;3.20;99.90;;;;;;4940856;29;20210;-69
2024/02/09 11:56:44;;;;;;;0.47;0.47;;;3.10;99.90;;;;;;4943440;29;20629;-69
2024/02/09 11:59:11;;;;;;;0.40;0.40;;;3.10;99.90;;;;;;4938852;28;20213;-70
2024/02/09 12:01:40;;;;;;;1.65;0.55;;;3.10;99.90;;;;;;4938240;29;20237;-70
2024/02/09 12:04:07;;;;;;;0.50;0.50;;;3.10;99.90;;;;;;4943568;29;20275;-68
2024/02/09 12:06:36;;;;;;;1.15;0.98;;;3.10;99.90;;;;;;4942770;29;20202;-69
2024/02/09 12:09:05;;;;;;;0.40;0.40;;;3.10;99.90;;;;;;4932386;29;20212;-70
2024/02/09 12:11:32;;;;;;;0.55;0.55;;;3.10;99.90;;;;;;4940997;29;20232;-71
2024/02/09 12:13:58;;;;;;;0.68;0.68;;;3.10;99.90;;;;;;4937957;28;20233;-70
2024/02/09 12:16:25;;;;;;;2.08;1.92;;;3.10;99.90;;;;;;4936613;29;20311;-68
2024/02/09 12:18:54;;;;;;;0.63;0.63;;;3.10;99.90;;;;;;4941079;29;20205;-69
2024/02/09 12:21:21;;;;;;;0.50;0.50;;;3.20;99.90;;;;;;4936551;29;20236;-71
2024/02/09 12:23:49;;;;;;;0.93;0.93;;;3.20;99.90;;;;;;4935880;29;20625;-70
2024/02/09 12:26:18;;;;;;;1.10;1.10;;;3.20;99.90;;;;;;4937363;29;20218;-69
2024/02/09 12:28:45;;;;;;;0.75;0.75;;;3.20;99.90;;;;;;4943091;28;20209;-70
2024/02/09 12:31:14;;;;;;;0.85;0.85;;;3.30;99.90;;;;;;4940755;29;20225;-71
2024/02/09 12:33:44;;;;;;;0.93;0.80;;;3.30;99.90;;;;;;4936325;28;20236;-70
2024/02/09 12:36:13;;;;;;;1.02;0.55;;;3.30;99.90;;;;;;4940589;29;20225;-70
2024/02/09 12:38:41;;;;;;;2.10;1.65;;;3.30;99.90;;;;;;4933256;29;20268;-69
2024/02/09 12:41:08;;;;;;;1.08;1.02;;;3.30;99.90;;;;;;4933697;29;20343;-70
2024/02/09 12:43:37;;;;;;;1.38;1.38;;;3.30;99.90;;;;;;4936822;29;20201;-71
2024/02/09 12:46:07;;;;;;;1.40;1.40;;;3.30;99.90;;;;;;4932546;29;20344;-71
2024/02/09 12:48:36;;;;;;;1.42;1.42;;;3.40;99.90;;;;;;4934649;29;20205;-71
2024/02/09 12:51:05;;;;;;;0.75;0.75;;;3.40;99.90;;;;;;4933952;29;20226;-71
2024/02/09 12:53:33;;;;;;;0.65;0.65;;;3.40;99.90;;;;;;4933484;29;20226;-71
2024/02/09 12:55:59;;;;;;;1.00;1.00;;;3.40;99.90;;;;;;4938513;29;20267;-70
2024/02/09 12:58:26;;;;;;;0.65;0.65;;;3.40;99.90;;;;;;4942846;29;20249;-70
2024/02/09 13:00:55;;;;;;;0.90;0.90;;;3.40;99.90;;;;;;4939702;28;20242;-70
2024/02/09 13:03:22;;;;;;;0.70;0.70;;;3.50;99.90;;;;;;4938282;29;20206;-69
2024/02/09 13:05:49;;;;;;;1.27;1.17;;;3.50;99.90;;;;;;4937573;29;20260;-71
2024/02/09 13:08:16;;;;;;;1.67;1.45;;;3.60;99.90;;;;;;4935230;29;20661;-71
2024/02/09 13:10:43;;;;;;;1.48;1.38;;;3.60;99.90;;;;;;4937906;28;20234;-72
2024/02/09 13:13:11;;;;;;;2.75;1.58;;;3.60;99.90;;;;;;4934318;29;20297;-71
2024/02/09 13:15:38;;;;;;;1.40;1.40;;;3.60;99.90;;;;;;4937501;29;20272;-68
2024/02/09 13:18:08;;;;;;;4.32;1.45;;;3.60;99.90;;;;;;4934318;29;20625;-70
2024/02/09 13:20:35;;;;;;;1.35;1.35;;;3.60;99.90;;;;;;4938213;29;20234;-70
2024/02/09 13:23:02;;;;;;;1.25;1.25;;;3.60;99.90;;;;;;4937686;29;20292;-71
2024/02/09 13:25:32;;;;;;;2.88;1.33;;;3.60;99.90;;;;;;4936146;29;20220;-70
2024/02/09 13:27:59;;;;;;;1.17;1.17;;;3.60;99.90;;;;;;4941019;28;20268;-71
2024/02/09 13:30:28;;;;;;;1.80;1.77;;;3.70;99.90;;;;;;4942607;28;20211;-71
2024/02/09 13:32:55;;;;;;;1.45;1.10;;;3.70;99.90;;;;;;4946190;28;20248;-69
2024/02/09 13:35:24;;;;;;;1.70;1.70;;;3.70;99.90;;;;;;4940820;28;20210;-70
2024/02/09 13:37:51;;;;;;;1.30;1.20;;;3.70;99.90;;;;;;4944206;28;20204;-70
2024/02/09 13:40:19;;;;;;;1.70;1.60;;;3.70;99.90;;;;;;4948031;28;20277;-70
2024/02/09 13:42:47;;;;;;;2.30;1.95;;;3.70;99.90;;;;;;4944382;28;21041;-70
2024/02/09 13:45:14;;;;;;;2.30;2.22;;;3.70;99.90;;;;;;4944062;29;20221;-70
2024/02/09 13:47:43;;;;;;;2.45;2.35;;;3.70;99.90;;;;;;4943855;29;20224;-70
2024/02/09 13:50:11;;;;;;;1.80;1.80;;;3.70;99.90;;;;;;4950817;29;20795;-71
2024/02/09 13:52:39;;;;;;;1.08;0.95;;;3.80;99.90;;;;;;4949553;28;20283;-71
2024/02/09 13:55:09;;;;;;;2.05;1.98;;;3.80;99.90;;;;;;4945396;28;20205;-72
2024/02/09 13:57:36;;;;;;;1.63;1.52;;;3.80;99.90;;;;;;4950909;29;20215;-70
2024/02/09 14:00:07;;;;;;;1.13;1.13;;;3.80;99.90;;;;;;4950063;28;20247;-71
2024/02/09 14:02:34;;;;;;;1.92;1.88;;;3.80;99.90;;;;;;4952276;29;20315;-69
2024/02/09 14:05:01;;;;;;;1.30;1.30;;;3.80;99.90;;;;;;4946169;29;20577;-69
2024/02/09 14:07:27;;;;;;;1.65;1.55;;;3.80;99.90;;;;;;4941180;28;20216;-69
2024/02/09 14:09:56;;;;;;;1.50;1.50;;;3.80;99.90;;;;;;4956421;28;20220;-70
2024/02/09 14:12:23;;;;;;;1.67;1.52;;;3.80;99.90;;;;;;4949834;29;20367;-70
2024/02/09 14:14:50;;;;;;;2.17;2.08;;;3.90;99.90;;;;;;4960836;28;20254;-70
2024/02/09 14:17:17;;;;;;;2.00;1.90;;;3.90;99.90;;;;;;4948382;29;20202;-70
2024/02/09 14:19:44;;;;;;;1.58;1.55;;;3.90;99.90;;;;;;4949584;29;20217;-69
2024/02/09 14:22:12;;;;;;;2.15;1.88;;;3.90;99.90;;;;;;4955377;28;20232;-71
2024/02/09 14:24:38;;;;;;;2.75;2.55;;;3.90;99.90;;;;;;4950358;28;20652;-70
2024/02/09 14:27:10;;;;;;;2.88;2.65;;;3.90;99.90;;;;;;4944746;28;20205;-70
2024/02/09 14:29:39;;;;;;;1.67;1.58;;;3.90;99.90;;;;;;4958493;28;20209;-70
2024/02/09 14:32:06;;;;;;;1.88;1.77;;;4.00;99.90;;;;;;4950452;28;20226;-69
2024/02/09 14:34:33;;;;;;;2.60;2.40;;;4.00;99.90;;;;;;4953780;29;20239;-70
2024/02/09 14:37:00;;;;;;;1.88;1.77;;;4.00;99.90;;;;;;4953125;28;20212;-69
2024/02/09 14:39:26;;;;;;;1.73;1.73;;;4.00;99.90;;;;;;4944023;29;20621;-70
2024/02/09 14:41:53;;;;;;;1.70;1.60;;;4.00;99.90;;;;;;4942221;29;20553;-69
2024/02/09 14:44:21;;;;;;;1.75;1.70;;;4.00;99.90;;;;;;4946451;29;20209;-69
2024/02/09 14:46:49;;;;;;;1.85;1.67;;;4.00;99.90;;;;;;4942256;28;20226;-69
2024/02/09 14:49:16;;;;;;;2.15;1.98;;;4.00;99.90;;;;;;4942723;29;20218;-70
2024/02/09 14:51:43;;;;;;;2.20;2.10;;;4.10;99.90;;;;;;4934268;29;20595;-69
2024/02/09 14:54:11;;;;;;;2.00;1.90;;;4.10;99.90;;;;;;4946261;29;20675;-69
2024/02/09 14:56:37;;;;;;;1.95;1.95;;;4.10;99.90;;;;;;4942631;28;20233;-69
2024/02/09 14:59:05;;;;;;;2.03;1.85;;;4.10;99.90;;;;;;4940363;28;20238;-69
2024/02/09 15:01:36;;;;;;;2.80;2.70;;;4.10;99.90;;;;;;4939887;29;20240;-69
2024/02/09 15:04:04;;;;;;;2.88;2.55;;;4.10;99.90;;;;;;4948608;28;20217;-69
2024/02/09 15:06:31;;;;;;;2.92;2.17;;;4.10;99.90;;;;;;4949258;29;20210;-69
2024/02/09 15:08:58;;;;;;;1.52;1.45;;;4.20;99.90;;;;;;4943439;28;20219;-70
2024/02/09 15:11:26;;;;;;;1.77;1.77;;;4.20;99.90;;;;;;4940962;28;20233;-69
2024/02/09 15:13:58;;;;;;;1.30;0.88;;;4.20;99.90;;;;;;4950364;29;20253;-69
2024/02/09 15:16:25;;;;;;;1.95;1.95;;;4.30;99.90;;;;;;4932378;28;20217;-69
2024/02/09 15:18:53;;;;;;;2.38;2.28;;;4.30;99.90;;;;;;4936159;29;20227;-68
2024/02/09 15:21:21;;;;;;;3.65;2.88;;;4.30;99.90;;;;;;4949349;29;20233;-69
2024/02/09 15:23:47;;;;;;;5.80;2.75;;;4.20;99.90;;;;;;4946221;28;20225;-68
2024/02/09 15:26:15;;;;;;;1.73;1.63;;;4.20;99.90;;;;;;4946470;29;20691;-69
2024/02/09 15:28:43;;;;;;;2.80;2.58;;;4.30;99.90;;;;;;4943304;29;20221;-69
2024/02/09 15:31:10;;;;;;;2.35;2.25;;;4.30;99.90;;;;;;4942387;29;20229;-70
2024/02/09 15:33:38;;;;;;;0.68;0.68;;;4.30;99.90;;;;;;4940048;29;20552;-68
2024/02/09 15:36:07;;;;;;;2.55;2.40;;;4.30;99.90;;;;;;4940273;28;20241;-70
2024/02/09 15:38:34;;;;;;;2.72;2.63;;;4.30;99.90;;;;;;4942748;29;20209;-70
2024/02/09 15:41:00;;;;;;;2.85;2.47;;;4.30;99.90;;;;;;4945019;28;20229;-70
2024/02/09 15:43:28;;;;;;;3.35;3.15;;;4.30;99.90;;;;;;4930827;29;20198;-69
2024/02/09 15:45:56;;;;;;;2.75;2.55;;;4.40;99.90;;;;;;4947139;28;20217;-70
2024/02/09 15:48:24;;;;;;;2.58;2.42;;;4.40;99.90;;;;;;4942774;28;20760;-71
2024/02/09 15:50:51;;;;;;;3.05;2.95;;;4.40;99.90;;;;;;4948457;28;20229;-70
2024/02/09 15:53:19;;;;;;;3.70;3.50;;;4.40;99.90;;;;;;4941689;29;20735;-70
2024/02/09 15:55:48;;;;;;;2.65;2.45;;;4.40;99.90;;;;;;4941265;29;20313;-69
2024/02/09 15:58:19;;;;;;;2.53;2.33;;;4.40;99.90;;;;;;4938887;29;20224;-70
2024/02/09 16:00:46;;;;;;;2.03;1.95;;;4.40;99.90;;;;;;4945064;29;20244;-70
2024/02/09 16:03:13;;;;;;;2.55;2.35;;;4.40;99.90;;;;;;4944055;29;20313;-71
2024/02/09 16:05:40;;;;;;;3.08;2.85;;;4.40;99.90;;;;;;4947169;28;20216;-70
2024/02/09 16:08:07;;;;;;;4.53;3.50;;;4.40;99.90;;;;;;4946522;28;20261;-70
2024/02/09 16:10:35;;;;;;;3.63;2.97;;;4.50;99.90;;;;;;4936845;29;20230;-68
2024/02/09 16:13:03;;;;;;;3.13;3.03;;;4.50;99.90;;;;;;4943780;29;20316;-69
2024/02/09 16:15:29;;;;;;;3.10;2.72;;;4.50;99.90;;;;;;4942526;28;20320;-69
2024/02/09 16:17:59;;;;;;;3.97;3.72;;;4.50;99.90;;;;;;4940731;29;20256;-70
2024/02/09 16:20:26;;;;;;;4.07;3.78;;;4.50;99.90;;;;;;4940878;28;20300;-70
2024/02/09 16:22:54;;;;;;;3.28;3.05;;;4.40;99.90;;;;;;4940477;28;20910;-69
2024/02/09 16:25:21;;;;;;;3.80;3.58;;;4.50;99.90;;;;;;4942658;29;20738;-69
2024/02/09 16:27:49;;;;;;;3.65;3.35;;;4.50;99.90;;;;;;4947379;28;20212;-70
2024/02/09 16:30:16;;;;;;;4.85;3.92;;;4.50;99.90;;;;;;4943265;28;20209;-70
2024/02/09 16:32:43;;;;;;;5.30;4.90;;;4.40;99.90;;;;;;4940223;28;20515;-69
2024/02/09 16:35:10;;;;;;;2.97;2.72;;;4.40;99.90;;;;;;4945182;29;20230;-68
2024/02/09 16:37:37;;;;;;;7.18;4.15;;;4.40;99.90;;;;;;4940260;29;20221;-69
2024/02/09 16:40:05;;;;;;;4.90;4.05;;;4.50;99.90;;;;;;4936317;28;20218;-70
2024/02/09 16:42:32;;;;;;;7.93;4.25;;;4.50;99.90;;;;;;4942981;28;20230;-70
2024/02/09 16:45:00;;;;;;;6.15;5.65;;;4.50;99.90;;;;;;4934723;29;20201;-69
2024/02/09 16:47:28;;;;;;;11.90;8.70;;;4.50;99.90;;;;;;4937844;29;20206;-69
2024/02/09 16:49:55;;;;;;;7.00;5.85;;;4.50;99.90;;;;;;4935760;29;20228;-70
2024/02/09 16:52:22;;;;;;;9.50;7.22;;;4.50;99.90;;;;;;4934705;29;20233;-68
2024/02/09 16:54:48;;;;;;;8.27;7.03;;;4.50;99.90;;;;;;4933052;29;20320;-68
2024/02/09 16:57:15;;;;;;;4.65;4.35;;;4.50;99.90;;;;;;4938448;29;20214;-69
2024/02/09 16:59:42;;;;;;;5.50;4.72;;;4.60;99.90;;;;;;4937209;29;20214;-70
2024/02/09 17:02:10;;;;;;;6.28;4.85;;;4.60;99.90;;;;;;4939556;29;20264;-70
2024/02/09 17:04:38;;;;;;;5.60;5.25;;;4.60;99.90;;;;;;4932132;29;20214;-70
2024/02/09 17:07:05;;;;;;;4.40;4.15;;;4.60;99.90;;;;;;4935612;29;20298;-70
2024/02/09 17:09:33;;;;;;;5.18;3.97;;;4.60;99.90;;;;;;4934252;29;20209;-73
2024/02/09 17:12:00;;;;;;;6.30;5.32;;;4.60;99.90;;;;;;4938752;29;20221;-70
2024/02/09 17:14:26;;;;;;;6.18;5.18;;;4.60;99.90;;;;;;4939607;28;20332;-70
2024/02/09 17:16:58;;;;;;;4.70;4.25;;;4.60;99.90;;;;;;4937379;29;20214;-70
2024/02/09 17:19:28;;;;;;;5.60;5.07;;;4.60;99.90;;;;;;4932143;29;20206;-71
2024/02/09 17:21:55;;;;;;;5.97;4.82;;;4.60;99.90;;;;;;4934035;29;20249;-69
2024/02/09 17:24:22;;;;;;;7.65;4.78;;;4.60;99.90;;;;;;4941404;28;20220;-70
2024/02/09 17:26:49;;;;;;;4.65;4.18;;;4.60;99.90;;;;;;4941804;28;20227;-69
2024/02/09 17:29:16;;;;;;;5.05;3.75;;;4.70;99.90;;;;;;4934984;29;20621;-70
2024/02/09 17:31:44;;;;;;;7.15;5.00;;;4.70;99.90;;;;;;4939052;29;20316;-69
2024/02/09 17:34:11;;;;;;;4.55;4.15;;;4.70;99.90;;;;;;4936674;29;20229;-70
2024/02/09 17:36:39;;;;;;;8.68;5.60;;;4.70;99.90;;;;;;4937313;29;20214;-70
2024/02/09 17:39:07;;;;;;;9.40;4.95;;;4.70;99.90;;;;;;4947059;28;20619;-69
2024/02/09 17:41:34;;;;;;;7.13;6.45;;;4.70;99.90;;;;;;4937235;28;20300;-70
2024/02/09 17:44:01;;;;;;;6.90;6.35;;;4.80;99.90;;;;;;4937266;29;20205;-69
2024/02/09 17:46:27;;;;;;;8.52;5.47;;;4.80;99.90;;;;;;4944126;29;20206;-69
2024/02/09 17:48:54;;;;;;;8.88;6.03;;;4.80;99.90;;;;;;4937003;29;20206;-69
2024/02/09 17:51:21;;;;;;;5.63;4.82;;;4.80;99.90;;;;;;4934468;28;20281;-69
2024/02/09 17:53:49;;;;;;;8.45;4.50;;;4.80;99.90;;;;;;4935717;29;20212;-69
2024/02/09 17:56:16;;;;;;;7.22;5.28;;;4.80;99.90;;;;;;4939262;28;20205;-69
2024/02/09 17:58:42;;;;;;;7.53;5.63;;;4.80;99.90;;;;;;4937804;29;20216;-68